| time (UTC) | temp F | wind direction | speed knots | gust knots | rain 1hr in | rain 24hr in | rain mn in | humidity % | barometer mb |
| 20260510180230 | 89 | 66 | 0.0 | 0.9 | 0.00 | 0.00 | 0.00 | 30 | 1016.6 |
| 20260510175726 | 88 | 33 | 0.0 | 1.7 | 0.00 | 0.00 | 0.00 | 28 | 1016.8 |
| 20260510175222 | 87 | 121 | 0.0 | 0.9 | 0.00 | 0.00 | 0.00 | 29 | 1017.0 |
| 20260510174720 | 87 | 86 | 0.9 | 2.6 | 0.00 | 0.00 | 0.00 | 29 | 1016.8 |
| 20260510174217 | 86 | 242 | 0.9 | 2.6 | 0.00 | 0.00 | 0.00 | 30 | 1016.8 |
| 20260510173712 | 87 | 55 | 0.0 | 5.2 | 0.00 | 0.00 | 0.00 | 30 | 1016.8 |
| 20260510173208 | 88 | 20 | 0.0 | 3.5 | 0.00 | 0.00 | 0.00 | 29 | 1016.7 |
| 20260510172704 | 85 | 45 | 0.0 | 0.9 | 0.00 | 0.00 | 0.00 | 32 | 1016.9 |
| 20260510172200 | 86 | 240 | 0.0 | 1.7 | 0.00 | 0.00 | 0.00 | 31 | 1017.0 |
| 20260510171657 | 86 | 36 | 0.0 | 0.9 | 0.00 | 0.00 | 0.00 | 31 | 1016.8 |
| 20260510171155 | 84 | 331 | 0.0 | 1.7 | 0.00 | 0.00 | 0.00 | 33 | 1017.0 |
| 20260510170651 | 85 | 238 | 3.5 | 5.2 | 0.00 | 0.00 | 0.00 | 32 | 1017.2 |
| 20260510170147 | 85 | 256 | 1.7 | 1.7 | 0.00 | 0.00 | 0.00 | 33 | 1016.9 |
| 20260510165644 | 87 | 346 | 0.9 | 2.6 | 0.00 | 0.00 | 0.00 | 31 | 1016.9 |
| 20260510165139 | 86 | 38 | 0.0 | 0.9 | 0.00 | 0.00 | 0.00 | 32 | 1017.2 |
| 20260510164637 | 86 | 87 | 0.9 | 1.7 | 0.00 | 0.00 | 0.00 | 31 | 1017.1 |
| 20260510164134 | 85 | 157 | 0.9 | 2.6 | 0.00 | 0.00 | 0.00 | 32 | 1017.0 |
| 20260510163629 | 85 | 24 | 0.9 | 1.7 | 0.00 | 0.00 | 0.00 | 31 | 1017.2 |
| 20260510163126 | 84 | 216 | 1.7 | 2.6 | 0.00 | 0.00 | 0.00 | 33 | 1017.1 |
| 20260510162626 | 83 | 54 | 0.0 | 1.7 | 0.00 | 0.00 | 0.00 | 37 | 1017.2 |
| 20260510162123 | 82 | 78 | 0.9 | 0.9 | 0.00 | 0.00 | 0.00 | 40 | 1017.1 |
| 20260510161618 | 83 | 57 | 0.0 | 0.9 | 0.00 | 0.00 | 0.00 | 39 | 1017.3 |
| 20260510161115 | 83 | 91 | 0.0 | 0.9 | 0.00 | 0.00 | 0.00 | 38 | 1017.2 |
| 20260510160612 | 83 | 41 | 0.9 | 1.7 | 0.00 | 0.00 | 0.00 | 38 | 1017.3 |
| 20260510160112 | 83 | 120 | 0.0 | 1.7 | 0.00 | 0.00 | 0.00 | 40 | 1017.5 |
| 20260510155609 | 83 | 205 | 0.9 | 2.6 | 0.00 | 0.00 | 0.00 | 39 | 1017.7 |
| 20260510155105 | 83 | 85 | 0.0 | 0.9 | 0.00 | 0.00 | 0.00 | 41 | 1017.6 |
| 20260510154601 | 82 | 163 | 1.7 | 2.6 | 0.00 | 0.00 | 0.00 | 41 | 1017.8 |
| 20260510154056 | 82 | 53 | 0.0 | 2.6 | 0.00 | 0.00 | 0.00 | 41 | 1017.9 |
| 20260510153551 | 81 | 116 | 0.9 | 1.7 | 0.00 | 0.00 | 0.00 | 41 | 1017.7 |
| 20260510153048 | 80 | 47 | 0.0 | 0.9 | 0.00 | 0.00 | 0.00 | 44 | 1017.8 |
| 20260510152545 | 79 | 136 | 0.0 | 0.9 | 0.00 | 0.00 | 0.00 | 42 | 1017.7 |
| 20260510152041 | 79 | 74 | 0.0 | 2.6 | 0.00 | 0.00 | 0.00 | 44 | 1017.7 |
| 20260510151538 | 78 | 50 | 0.0 | 1.7 | 0.00 | 0.00 | 0.00 | 47 | 1017.7 |
| 20260510151036 | 78 | 60 | 0.0 | 0.0 | 0.00 | 0.00 | 0.00 | 48 | 1017.4 |
| 20260510150530 | 78 | 64 | 0.0 | 0.9 | 0.00 | 0.00 | 0.00 | 48 | 1017.6 |
| 20260510150027 | 77 | 175 | 1.7 | 3.5 | 0.00 | 0.00 | 0.00 | 48 | 1017.5 |
| 20260510145524 | 77 | 62 | 0.0 | 0.9 | 0.00 | 0.00 | 0.00 | 53 | 1017.6 |
| 20260510145020 | 76 | 53 | 0.0 | 0.9 | 0.00 | 0.00 | 0.00 | 53 | 1017.8 |
| 20260510144517 | 76 | 26 | 0.0 | 0.9 | 0.00 | 0.00 | 0.00 | 53 | 1017.5 |
| 20260510144013 | 76 | 342 | 0.0 | 0.9 | 0.00 | 0.00 | 0.00 | 51 | 1017.5 |
| 20260510143508 | 75 | 64 | 0.0 | 0.9 | 0.00 | 0.00 | 0.00 | 53 | 1017.5 |
| 20260510143005 | 75 | 52 | 0.0 | 0.0 | 0.00 | 0.00 | 0.00 | 55 | 1017.5 |
| 20260510142502 | 75 | 108 | 0.0 | 0.9 | 0.00 | 0.00 | 0.00 | 56 | 1017.5 |
| 20260510141958 | 75 | 124 | 0.9 | 0.9 | 0.00 | 0.00 | 0.00 | 53 | 1017.5 |
| 20260510141455 | 75 | 47 | 0.0 | 0.0 | 0.00 | 0.00 | 0.00 | 55 | 1017.7 |
| 20260510140952 | 75 | 210 | 0.9 | 0.9 | 0.00 | 0.00 | 0.00 | 56 | 1017.5 |
| 20260510140448 | 74 | 52 | 0.0 | 0.9 | 0.00 | 0.00 | 0.00 | 57 | 1017.5 |
| 20260510135948 | 74 | 225 | 0.9 | 1.7 | 0.00 | 0.00 | 0.00 | 60 | 1017.8 |
| 20260510135443 | 74 | 70 | 0.0 | 1.7 | 0.00 | 0.00 | 0.00 | 61 | 1017.6 |
| 20260510134941 | 74 | 63 | 0.0 | 1.7 | 0.00 | 0.00 | 0.00 | 61 | 1017.5 |
| 20260510134437 | 73 | 65 | 0.0 | 0.0 | 0.00 | 0.00 | 0.00 | 63 | 1017.5 |
| 20260510133934 | 73 | 46 | 0.0 | 0.0 | 0.00 | 0.00 | 0.00 | 63 | 1017.5 |
| 20260510133430 | 73 | 53 | 0.0 | 0.0 | 0.00 | 0.00 | 0.00 | 64 | 1017.5 |
| 20260510132926 | 73 | 61 | 0.0 | 0.9 | 0.00 | 0.00 | 0.00 | 66 | 1017.5 |
| 20260510132424 | 73 | 53 | 0.0 | 0.9 | 0.00 | 0.00 | 0.00 | 67 | 1017.7 |
| 20260510131920 | 73 | 18 | 0.0 | 0.9 | 0.00 | 0.00 | 0.00 | 66 | 1017.6 |
| 20260510131418 | 73 | 57 | 0.0 | 0.0 | 0.00 | 0.00 | 0.00 | 68 | 1017.6 |
| 20260510130914 | 72 | 66 | 0.0 | 0.0 | 0.00 | 0.00 | 0.00 | 68 | 1017.4 |
| 20260510130412 | 72 | 65 | 0.0 | 0.0 | 0.00 | 0.00 | 0.00 | 68 | 1017.2 |
| 20260510125909 | 72 | 76 | 0.0 | 0.9 | 0.00 | 0.00 | 0.00 | 69 | 1017.1 |
| 20260510125404 | 72 | 73 | 0.0 | 0.9 | 0.00 | 0.00 | 0.00 | 70 | 1017.1 |
| 20260510124902 | 73 | 81 | 0.0 | 0.9 | 0.00 | 0.00 | 0.00 | 69 | 1016.9 |
| 20260510124358 | 72 | 71 | 0.0 | 0.0 | 0.00 | 0.00 | 0.00 | 72 | 1017.1 |
| 20260510123854 | 71 | 50 | 0.0 | 0.0 | 0.00 | 0.00 | 0.00 | 75 | 1017.1 |
| 20260510123350 | 68 | 71 | 0.0 | 0.0 | 0.00 | 0.00 | 0.00 | 81 | 1017.0 |
| 20260510122846 | 67 | 80 | 0.0 | 0.0 | 0.00 | 0.00 | 0.00 | 85 | 1017.1 |
| 20260510122342 | 66 | 7 | 0.9 | 1.7 | 0.00 | 0.00 | 0.00 | 89 | 1017.1 |
| 20260510121838 | 64 | 65 | 0.0 | 0.0 | 0.00 | 0.00 | 0.00 | 94 | 1016.8 |
| 20260510121336 | 64 | 64 | 0.0 | 0.0 | 0.00 | 0.00 | 0.00 | 97 | 1017.0 |
| 20260510120833 | 63 | 64 | 0.0 | 0.0 | 0.00 | 0.00 | 0.00 | 97 | 1016.8 |
| 20260510120330 | 62 | 64 | 0.0 | 0.0 | 0.00 | 0.00 | 0.00 | 97 | 1016.8 |
| 20260510115826 | 62 | 64 | 0.0 | 0.0 | 0.00 | 0.00 | 0.00 | 97 | 1016.7 |
| 20260510115323 | 62 | 64 | 0.0 | 0.0 | 0.00 | 0.00 | 0.00 | 97 | 1016.9 |
| 20260510114819 | 61 | 64 | 0.0 | 0.0 | 0.00 | 0.00 | 0.00 | 97 | 1016.7 |
| 20260510114316 | 61 | 64 | 0.0 | 0.0 | 0.00 | 0.00 | 0.00 | 97 | 1016.8 |
| 20260510113811 | 60 | 67 | 0.0 | 0.0 | 0.00 | 0.00 | 0.00 | 97 | 1016.6 |
| 20260510113308 | 60 | 59 | 0.0 | 0.0 | 0.00 | 0.00 | 0.00 | 97 | 1016.2 |
| 20260510112805 | 60 | 52 | 0.0 | 0.0 | 0.00 | 0.00 | 0.00 | 97 | 1016.4 |
| 20260510112305 | 59 | 52 | 0.0 | 0.0 | 0.00 | 0.00 | 0.00 | 97 | 1016.4 |
| 20260510111757 | 59 | 52 | 0.0 | 0.0 | 0.00 | 0.00 | 0.00 | 97 | 1016.2 |
| 20260510111255 | 59 | 52 | 0.0 | 0.0 | 0.00 | 0.00 | 0.00 | 97 | 1016.3 |
| 20260510110754 | 59 | 52 | 0.0 | 0.0 | 0.00 | 0.00 | 0.00 | 97 | 1016.0 |
| 20260510110252 | 59 | 52 | 0.0 | 0.0 | 0.00 | 0.00 | 0.00 | 97 | 1016.1 |
| 20260510105752 | 59 | 52 | 0.0 | 0.0 | 0.00 | 0.00 | 0.00 | 97 | 1015.9 |
| 20260510105247 | 59 | 50 | 0.0 | 0.0 | 0.00 | 0.00 | 0.00 | 97 | 1015.9 |
| 20260510104743 | 59 | 47 | 0.0 | 0.0 | 0.00 | 0.00 | 0.00 | 97 | 1016.0 |
| 20260510104241 | 59 | 47 | 0.0 | 0.0 | 0.00 | 0.00 | 0.00 | 97 | 1015.8 |
| 20260510103737 | 59 | 39 | 0.0 | 0.0 | 0.00 | 0.00 | 0.00 | 97 | 1015.9 |
| 20260510103235 | 59 | 49 | 0.0 | 0.0 | 0.00 | 0.00 | 0.00 | 97 | 1015.5 |
| 20260510102734 | 59 | 50 | 0.0 | 0.0 | 0.00 | 0.00 | 0.00 | 97 | 1015.6 |
| 20260510102230 | 59 | 43 | 0.0 | 0.0 | 0.00 | 0.00 | 0.00 | 97 | 1015.4 |
| 20260510101728 | 59 | 46 | 0.0 | 0.0 | 0.00 | 0.00 | 0.00 | 97 | 1015.5 |
| 20260510101226 | 59 | 53 | 0.0 | 0.0 | 0.00 | 0.00 | 0.00 | 97 | 1015.3 |
| 20260510100722 | 59 | 53 | 0.0 | 0.0 | 0.00 | 0.00 | 0.00 | 97 | 1015.2 |
| 20260510100220 | 59 | 55 | 0.0 | 0.0 | 0.00 | 0.00 | 0.00 | 97 | 1015.2 |
| 20260510095715 | 59 | 66 | 0.0 | 0.0 | 0.00 | 0.00 | 0.00 | 97 | 1015.0 |
| 20260510095211 | 59 | 72 | 0.0 | 0.0 | 0.00 | 0.00 | 0.00 | 97 | 1015.0 |
| 20260510094709 | 59 | 54 | 0.0 | 0.0 | 0.00 | 0.00 | 0.00 | 97 | 1014.9 |
| 20260510094205 | 59 | 54 | 0.0 | 0.0 | 0.00 | 0.00 | 0.00 | 97 | 1014.8 |
| 20260510093701 | 59 | 54 | 0.0 | 0.0 | 0.00 | 0.00 | 0.00 | 97 | 1014.7 |
| 20260510093159 | 59 | 54 | 0.0 | 0.0 | 0.00 | 0.00 | 0.00 | 97 | 1014.8 |
| 20260510092655 | 59 | 54 | 0.0 | 0.0 | 0.00 | 0.00 | 0.00 | 97 | 1014.7 |
| 20260510092150 | 59 | 53 | 0.0 | 0.0 | 0.00 | 0.00 | 0.00 | 97 | 1014.7 |
| 20260510091646 | 59 | 53 | 0.0 | 0.0 | 0.00 | 0.00 | 0.00 | 97 | 1014.7 |
| 20260510091143 | 59 | 53 | 0.0 | 0.0 | 0.00 | 0.00 | 0.00 | 97 | 1014.7 |
| 20260510090640 | 59 | 60 | 0.0 | 0.0 | 0.00 | 0.00 | 0.00 | 97 | 1014.6 |
| 20260510090136 | 59 | 60 | 0.0 | 0.0 | 0.00 | 0.00 | 0.00 | 97 | 1014.3 |
| 20260510085631 | 59 | 61 | 0.0 | 0.0 | 0.00 | 0.00 | 0.00 | 97 | 1014.4 |
| 20260510085126 | 59 | 65 | 0.0 | 0.0 | 0.00 | 0.00 | 0.00 | 97 | 1014.4 |
| 20260510084623 | 59 | 65 | 0.0 | 0.0 | 0.00 | 0.00 | 0.00 | 97 | 1014.2 |
| 20260510084121 | 59 | 41 | 0.0 | 0.0 | 0.00 | 0.00 | 0.00 | 97 | 1014.3 |
| 20260510083617 | 59 | 41 | 0.0 | 0.0 | 0.00 | 0.00 | 0.00 | 97 | 1014.2 |
| 20260510083113 | 59 | 41 | 0.0 | 0.0 | 0.00 | 0.00 | 0.00 | 97 | 1014.2 |
| 20260510082610 | 59 | 41 | 0.0 | 0.0 | 0.00 | 0.00 | 0.00 | 97 | 1014.2 |
| 20260510082105 | 59 | 41 | 0.0 | 0.0 | 0.00 | 0.00 | 0.00 | 97 | 1014.3 |
| 20260510081600 | 59 | 41 | 0.0 | 0.0 | 0.00 | 0.00 | 0.00 | 97 | 1014.3 |
| 20260510081056 | 59 | 41 | 0.0 | 0.0 | 0.00 | 0.00 | 0.00 | 97 | 1014.3 |
| 20260510080555 | 59 | 41 | 0.0 | 0.0 | 0.00 | 0.00 | 0.00 | 96 | 1014.2 |
| 20260510080053 | 59 | 41 | 0.0 | 0.0 | 0.00 | 0.00 | 0.00 | 97 | 1014.1 |
| 20260510075550 | 59 | 41 | 0.0 | 0.0 | 0.00 | 0.00 | 0.00 | 96 | 1014.0 |
| 20260510075046 | 59 | 41 | 0.0 | 0.0 | 0.00 | 0.00 | 0.00 | 96 | 1014.1 |
| 20260510074544 | 59 | 41 | 0.0 | 0.0 | 0.00 | 0.00 | 0.00 | 96 | 1014.0 |
| 20260510074039 | 59 | 41 | 0.0 | 0.0 | 0.00 | 0.00 | 0.00 | 96 | 1014.1 |
| 20260510073536 | 59 | 41 | 0.0 | 0.0 | 0.00 | 0.00 | 0.00 | 96 | 1013.9 |
| 20260510073033 | 59 | 41 | 0.0 | 0.0 | 0.00 | 0.00 | 0.00 | 96 | 1014.0 |
| 20260510072529 | 59 | 41 | 0.0 | 0.0 | 0.00 | 0.00 | 0.00 | 96 | 1013.9 |
| 20260510072025 | 59 | 41 | 0.0 | 0.0 | 0.00 | 0.00 | 0.00 | 96 | 1014.0 |
| 20260510071521 | 59 | 41 | 0.0 | 0.0 | 0.00 | 0.00 | 0.00 | 96 | 1013.9 |
| 20260510071020 | 59 | 41 | 0.0 | 0.0 | 0.00 | 0.00 | 0.00 | 96 | 1013.8 |
| 20260510070516 | 59 | 41 | 0.0 | 0.0 | 0.00 | 0.00 | 0.00 | 96 | 1014.0 |
| 20260510070013 | 59 | 41 | 0.0 | 0.0 | 0.00 | 0.00 | 0.00 | 96 | 1013.9 |
| 20260510065509 | 60 | 41 | 0.0 | 0.0 | 0.00 | 0.00 | 0.00 | 96 | 1013.9 |
| 20260510065005 | 60 | 41 | 0.0 | 0.0 | 0.00 | 0.00 | 0.00 | 96 | 1014.2 |
| 20260510064503 | 60 | 41 | 0.0 | 0.0 | 0.00 | 0.00 | 0.00 | 96 | 1014.2 |
| 20260510063959 | 60 | 41 | 0.0 | 0.0 | 0.00 | 0.00 | 0.00 | 96 | 1014.1 |
| 20260510063455 | 60 | 41 | 0.0 | 0.0 | 0.00 | 0.00 | 0.00 | 96 | 1014.0 |
| 20260510062953 | 60 | 41 | 0.0 | 0.0 | 0.00 | 0.00 | 0.00 | 96 | 1014.0 |
| 20260510062449 | 60 | 41 | 0.0 | 0.0 | 0.00 | 0.00 | 0.00 | 96 | 1014.0 |
| 20260510061944 | 60 | 41 | 0.0 | 0.0 | 0.00 | 0.00 | 0.00 | 96 | 1013.8 |
| 20260510061441 | 60 | 41 | 0.0 | 0.0 | 0.00 | 0.00 | 0.00 | 96 | 1013.9 |
| 20260510060937 | 60 | 41 | 0.0 | 0.0 | 0.00 | 0.00 | 0.00 | 96 | 1014.1 |
| 20260510060434 | 60 | 41 | 0.0 | 0.0 | 0.00 | 0.00 | 0.00 | 96 | 1014.0 |
| 20260510055930 | 60 | 41 | 0.0 | 0.0 | 0.00 | 0.00 | 0.00 | 96 | 1013.9 |
| 20260510055426 | 60 | 41 | 0.0 | 0.0 | 0.00 | 0.00 | 0.00 | 96 | 1013.8 |
| 20260510054925 | 60 | 52 | 0.0 | 0.0 | 0.00 | 0.00 | 0.00 | 96 | 1014.2 |
| 20260510054420 | 60 | 52 | 0.0 | 0.0 | 0.00 | 0.00 | 0.00 | 96 | 1013.9 |
| 20260510053915 | 60 | 53 | 0.0 | 0.0 | 0.00 | 0.00 | 0.00 | 96 | 1014.1 |
| 20260510053411 | 60 | 53 | 0.0 | 0.0 | 0.00 | 0.00 | 0.00 | 96 | 1014.0 |
| 20260510052907 | 60 | 53 | 0.0 | 0.0 | 0.00 | 0.00 | 0.00 | 96 | 1014.2 |
| 20260510052403 | 60 | 53 | 0.0 | 0.0 | 0.00 | 0.00 | 0.00 | 95 | 1014.4 |
| 20260510051859 | 60 | 53 | 0.0 | 0.0 | 0.00 | 0.00 | 0.00 | 95 | 1014.4 |
| 20260510051356 | 60 | 53 | 0.0 | 0.0 | 0.00 | 0.00 | 0.00 | 95 | 1014.3 |
| 20260510050853 | 60 | 53 | 0.0 | 0.0 | 0.00 | 0.00 | 0.00 | 95 | 1014.4 |
| 20260510050349 | 60 | 53 | 0.0 | 0.0 | 0.00 | 0.00 | 0.00 | 95 | 1014.4 |
| 20260510045846 | 60 | 53 | 0.0 | 0.0 | 0.00 | 0.00 | 0.00 | 95 | 1014.4 |
| 20260510045343 | 60 | 53 | 0.0 | 0.0 | 0.00 | 0.00 | 0.00 | 95 | 1014.3 |
| 20260510044840 | 60 | 53 | 0.0 | 0.0 | 0.00 | 0.00 | 0.00 | 95 | 1014.5 |
| 20260510044337 | 60 | 55 | 0.0 | 0.0 | 0.00 | 0.00 | 0.00 | 95 | 1014.6 |
| 20260510043834 | 60 | 35 | 0.0 | 0.0 | 0.00 | 0.00 | 0.00 | 95 | 1014.6 |
| 20260510043329 | 60 | 41 | 0.0 | 0.0 | 0.00 | 0.00 | 0.00 | 95 | 1014.6 |
| 20260510042828 | 60 | 53 | 0.0 | 0.0 | 0.00 | 0.00 | 0.00 | 95 | 1014.5 |
| 20260510042323 | 60 | 54 | 0.0 | 0.0 | 0.00 | 0.00 | 0.00 | 95 | 1014.5 |
| 20260510041820 | 60 | 59 | 0.0 | 0.0 | 0.00 | 0.00 | 0.00 | 95 | 1014.4 |
| 20260510041317 | 60 | 48 | 0.0 | 0.0 | 0.00 | 0.00 | 0.00 | 95 | 1014.5 |
| 20260510040814 | 60 | 48 | 0.0 | 0.0 | 0.00 | 0.00 | 0.00 | 95 | 1014.6 |
| 20260510040311 | 61 | 48 | 0.0 | 0.0 | 0.00 | 0.00 | 0.00 | 95 | 1014.5 |
| 20260510035806 | 61 | 48 | 0.0 | 0.0 | 0.00 | 0.00 | 0.00 | 95 | 1014.6 |
| 20260510035306 | 61 | 48 | 0.0 | 0.0 | 0.00 | 0.00 | 0.00 | 95 | 1014.5 |
| 20260510034758 | 61 | 48 | 0.0 | 0.0 | 0.00 | 0.00 | 0.00 | 95 | 1014.3 |
| 20260510034256 | 61 | 48 | 0.0 | 0.0 | 0.00 | 0.00 | 0.00 | 94 | 1014.3 |
| 20260510033752 | 61 | 48 | 0.0 | 0.0 | 0.00 | 0.00 | 0.00 | 94 | 1014.5 |
| 20260510033250 | 61 | 48 | 0.0 | 0.0 | 0.00 | 0.00 | 0.00 | 94 | 1014.3 |
| 20260510032746 | 61 | 52 | 0.0 | 0.0 | 0.00 | 0.00 | 0.00 | 94 | 1014.3 |
| 20260510032242 | 61 | 55 | 0.0 | 0.0 | 0.00 | 0.00 | 0.00 | 94 | 1014.3 |
| 20260510031738 | 61 | 55 | 0.0 | 0.0 | 0.00 | 0.00 | 0.00 | 94 | 1014.1 |
| 20260510031233 | 61 | 55 | 0.0 | 0.0 | 0.00 | 0.00 | 0.00 | 94 | 1014.4 |
| 20260510030733 | 61 | 55 | 0.0 | 0.0 | 0.00 | 0.00 | 0.00 | 94 | 1014.2 |
| 20260510030231 | 61 | 58 | 0.0 | 0.0 | 0.00 | 0.00 | 0.00 | 93 | 1014.1 |
| 20260510025728 | 62 | 58 | 0.0 | 0.0 | 0.00 | 0.00 | 0.00 | 93 | 1014.2 |
| 20260510025225 | 62 | 61 | 0.0 | 0.0 | 0.00 | 0.00 | 0.00 | 93 | 1014.2 |
| 20260510024722 | 62 | 60 | 0.0 | 0.0 | 0.00 | 0.00 | 0.00 | 93 | 1014.2 |
| 20260510024219 | 62 | 32 | 0.0 | 0.0 | 0.00 | 0.00 | 0.00 | 92 | 1014.0 |
| 20260510023714 | 62 | 32 | 0.0 | 0.0 | 0.00 | 0.00 | 0.00 | 92 | 1014.1 |
| 20260510023212 | 62 | 32 | 0.0 | 0.0 | 0.00 | 0.00 | 0.00 | 92 | 1014.0 |
| 20260510022707 | 62 | 27 | 0.0 | 0.0 | 0.00 | 0.00 | 0.00 | 92 | 1014.2 |
| 20260510022202 | 62 | 27 | 0.0 | 0.0 | 0.00 | 0.00 | 0.00 | 92 | 1013.8 |
| 20260510021658 | 62 | 27 | 0.0 | 0.0 | 0.00 | 0.00 | 0.00 | 92 | 1013.9 |
| 20260510021155 | 63 | 35 | 0.0 | 0.0 | 0.00 | 0.00 | 0.00 | 91 | 1014.0 |
| 20260510020649 | 63 | 48 | 0.0 | 0.0 | 0.00 | 0.00 | 0.00 | 91 | 1014.0 |
| 20260510020145 | 63 | 34 | 0.0 | 0.0 | 0.00 | 0.00 | 0.00 | 91 | 1013.9 |
| 20260510015641 | 63 | 34 | 0.0 | 0.0 | 0.00 | 0.00 | 0.00 | 91 | 1014.0 |
| 20260510015138 | 63 | 27 | 0.0 | 0.0 | 0.00 | 0.00 | 0.00 | 90 | 1013.8 |
| 20260510014638 | 63 | 48 | 0.0 | 0.0 | 0.00 | 0.00 | 0.00 | 90 | 1013.9 |
| 20260510014136 | 63 | 48 | 0.0 | 0.0 | 0.00 | 0.00 | 0.00 | 89 | 1013.6 |
| 20260510013631 | 64 | 48 | 0.0 | 0.0 | 0.00 | 0.00 | 0.00 | 88 | 1013.5 |
| 20260510013126 | 64 | 48 | 0.0 | 0.0 | 0.00 | 0.00 | 0.00 | 88 | 1013.4 |
| 20260510012626 | 64 | 48 | 0.0 | 0.0 | 0.00 | 0.00 | 0.00 | 88 | 1013.5 |
| 20260510012123 | 64 | 48 | 0.0 | 0.0 | 0.00 | 0.00 | 0.00 | 87 | 1013.3 |
| 20260510011622 | 64 | 48 | 0.0 | 0.0 | 0.00 | 0.00 | 0.00 | 86 | 1013.2 |
| 20260510011118 | 65 | 48 | 0.0 | 0.0 | 0.00 | 0.00 | 0.00 | 86 | 1013.3 |
| 20260510010615 | 65 | 48 | 0.0 | 0.0 | 0.00 | 0.00 | 0.00 | 85 | 1013.2 |
| 20260510010113 | 66 | 48 | 0.0 | 0.0 | 0.00 | 0.00 | 0.00 | 85 | 1013.0 |
| 20260510005608 | 66 | 48 | 0.0 | 0.0 | 0.00 | 0.00 | 0.00 | 84 | 1013.1 |
| 20260510005105 | 66 | 55 | 0.0 | 0.0 | 0.00 | 0.00 | 0.00 | 83 | 1013.0 |
| 20260510004603 | 66 | 55 | 0.0 | 0.0 | 0.00 | 0.00 | 0.00 | 82 | 1013.0 |
| 20260510004101 | 67 | 55 | 0.0 | 0.0 | 0.00 | 0.00 | 0.00 | 82 | 1013.0 |
| 20260510003557 | 67 | 50 | 0.0 | 0.0 | 0.00 | 0.00 | 0.00 | 81 | 1013.1 |
| 20260510003053 | 68 | 49 | 0.0 | 0.0 | 0.00 | 0.00 | 0.00 | 80 | 1012.9 |
| 20260510002548 | 68 | 40 | 0.0 | 0.0 | 0.00 | 0.00 | 0.00 | 79 | 1013.0 |
| 20260510002046 | 68 | 38 | 0.0 | 0.0 | 0.00 | 0.00 | 0.00 | 78 | 1013.2 |
| 20260510001543 | 69 | 41 | 0.0 | 0.0 | 0.00 | 0.00 | 0.00 | 77 | 1013.0 |
| 20260510001041 | 69 | 41 | 0.0 | 0.0 | 0.00 | 0.00 | 0.00 | 76 | 1013.1 |
| 20260510000536 | 70 | 41 | 0.0 | 0.0 | 0.00 | 0.00 | 0.00 | 75 | 1012.9 |
| 20260510000033 | 70 | 57 | 0.0 | 0.0 | 0.00 | 0.00 | 0.00 | 74 | 1012.9 |
| 20260509235530 | 71 | 57 | 0.0 | 0.0 | 0.00 | 0.00 | 0.00 | 73 | 1012.8 |
| 20260509235027 | 71 | 57 | 0.0 | 0.0 | 0.00 | 0.00 | 0.00 | 72 | 1013.0 |
| 20260509234523 | 71 | 57 | 0.0 | 0.0 | 0.00 | 0.00 | 0.00 | 71 | 1012.6 |
| 20260509234021 | 71 | 59 | 0.0 | 0.0 | 0.00 | 0.00 | 0.00 | 70 | 1012.5 |
| 20260509233518 | 72 | 60 | 0.0 | 0.0 | 0.00 | 0.00 | 0.00 | 69 | 1012.5 |
| 20260509233015 | 72 | 52 | 0.0 | 0.9 | 0.00 | 0.00 | 0.00 | 69 | 1012.4 |
| 20260509232512 | 72 | 55 | 0.0 | 0.9 | 0.00 | 0.00 | 0.00 | 69 | 1012.7 |
| 20260509232008 | 72 | 94 | 0.0 | 0.0 | 0.00 | 0.00 | 0.00 | 68 | 1012.6 |
| 20260509231505 | 73 | 60 | 0.0 | 1.7 | 0.00 | 0.00 | 0.00 | 68 | 1012.5 |
| 20260509231002 | 73 | 40 | 0.0 | 0.0 | 0.00 | 0.00 | 0.00 | 67 | 1012.3 |
| 20260509230459 | 73 | 277 | 1.7 | 3.5 | 0.00 | 0.00 | 0.00 | 66 | 1012.2 |
| 20260509225955 | 73 | 10 | 0.0 | 0.9 | 0.00 | 0.00 | 0.00 | 67 | 1012.4 |
| 20260509225452 | 73 | 75 | 0.0 | 0.9 | 0.00 | 0.00 | 0.00 | 67 | 1012.2 |
| 20260509224947 | 73 | 88 | 0.0 | 1.7 | 0.00 | 0.00 | 0.00 | 65 | 1012.0 |
| 20260509224443 | 73 | 67 | 0.0 | 0.9 | 0.00 | 0.00 | 0.00 | 66 | 1012.0 |
| 20260509223940 | 73 | 321 | 0.9 | 6.1 | 0.00 | 0.00 | 0.00 | 65 | 1012.0 |
| 20260509223437 | 73 | 2 | 0.9 | 1.7 | 0.00 | 0.00 | 0.00 | 65 | 1012.3 |
| 20260509222935 | 74 | 174 | 0.9 | 1.7 | 0.00 | 0.00 | 0.00 | 65 | 1012.1 |
| 20260509222429 | 74 | 208 | 1.7 | 1.7 | 0.00 | 0.00 | 0.00 | 65 | 1012.1 |
| 20260509221926 | 74 | 188 | 1.7 | 2.6 | 0.00 | 0.00 | 0.00 | 65 | 1012.3 |
| 20260509221422 | 74 | 178 | 0.9 | 1.7 | 0.00 | 0.00 | 0.00 | 65 | 1012.4 |
| 20260509220918 | 74 | 45 | 0.0 | 0.9 | 0.00 | 0.00 | 0.00 | 65 | 1012.4 |
| 20260509220414 | 74 | 110 | 0.9 | 1.7 | 0.00 | 0.00 | 0.00 | 65 | 1012.2 |
| 20260509215910 | 73 | 219 | 0.9 | 0.9 | 0.00 | 0.00 | 0.00 | 66 | 1012.2 |
| 20260509215406 | 74 | 25 | 0.9 | 1.7 | 0.00 | 0.00 | 0.00 | 65 | 1012.3 |
| 20260509214904 | 74 | 302 | 0.9 | 1.7 | 0.00 | 0.00 | 0.00 | 65 | 1012.3 |
| 20260509214401 | 73 | 333 | 0.0 | 2.6 | 0.00 | 0.00 | 0.00 | 66 | 1012.3 |
| 20260509213858 | 73 | 203 | 1.7 | 2.6 | 0.00 | 0.00 | 0.00 | 65 | 1012.2 |
| 20260509213353 | 73 | 251 | 0.0 | 2.6 | 0.00 | 0.00 | 0.00 | 66 | 1012.3 |
| 20260509212851 | 73 | 152 | 0.9 | 1.7 | 0.00 | 0.00 | 0.00 | 66 | 1012.3 |
| 20260509212348 | 73 | 270 | 0.9 | 3.5 | 0.00 | 0.00 | 0.00 | 65 | 1012.1 |
| 20260509211844 | 73 | 174 | 0.9 | 0.9 | 0.00 | 0.00 | 0.00 | 65 | 1012.2 |
| 20260509211340 | 74 | 112 | 0.9 | 1.7 | 0.00 | 0.00 | 0.00 | 64 | 1012.2 |
| 20260509210837 | 73 | 223 | 0.9 | 0.9 | 0.00 | 0.00 | 0.00 | 64 | 1012.1 |
| 20260509210335 | 74 | 189 | 2.6 | 2.6 | 0.00 | 0.00 | 0.00 | 63 | 1012.0 |
| 20260509205834 | 74 | 22 | 2.6 | 3.5 | 0.00 | 0.00 | 0.00 | 63 | 1012.1 |
| 20260509205329 | 73 | 307 | 1.7 | 2.6 | 0.00 | 0.00 | 0.00 | 63 | 1012.1 |
| 20260509204826 | 73 | 97 | 0.0 | 1.7 | 0.00 | 0.00 | 0.00 | 64 | 1012.0 |
| 20260509204322 | 73 | 48 | 0.0 | 3.5 | 0.00 | 0.00 | 0.00 | 64 | 1012.2 |
| 20260509203818 | 72 | 313 | 0.9 | 6.1 | 0.00 | 0.00 | 0.00 | 64 | 1012.1 |
| 20260509203315 | 72 | 99 | 0.9 | 5.2 | 0.00 | 0.00 | 0.00 | 65 | 1012.0 |
| 20260509202812 | 73 | 250 | 0.9 | 1.7 | 0.00 | 0.00 | 0.00 | 63 | 1012.2 |
| 20260509202308 | 73 | 285 | 0.9 | 0.9 | 0.00 | 0.00 | 0.00 | 63 | 1012.2 |
| 20260509201807 | 72 | 52 | 0.0 | 1.7 | 0.00 | 0.00 | 0.00 | 63 | 1012.1 |
| 20260509201304 | 72 | 218 | 0.9 | 2.6 | 0.00 | 0.00 | 0.00 | 63 | 1012.3 |
| 20260509200800 | 71 | 292 | 0.9 | 0.9 | 0.00 | 0.00 | 0.00 | 65 | 1012.3 |
| 20260509200255 | 71 | 60 | 0.0 | 0.9 | 0.00 | 0.00 | 0.00 | 66 | 1012.3 |
| 20260509195752 | 71 | 87 | 0.0 | 0.9 | 0.00 | 0.00 | 0.00 | 65 | 1012.6 |
| 20260509195248 | 71 | 181 | 0.9 | 0.9 | 0.00 | 0.00 | 0.00 | 65 | 1012.4 |
| 20260509194748 | 71 | 238 | 1.7 | 2.6 | 0.00 | 0.00 | 0.00 | 64 | 1012.5 |
| 20260509194244 | 71 | 196 | 0.9 | 1.7 | 0.00 | 0.00 | 0.00 | 64 | 1012.7 |
| 20260509193741 | 71 | 83 | 0.0 | 0.9 | 0.00 | 0.00 | 0.00 | 64 | 1012.7 |
| 20260509193241 | 71 | 328 | 1.7 | 2.6 | 0.00 | 0.00 | 0.00 | 64 | 1012.7 |
| 20260509192737 | 71 | 119 | 1.7 | 3.5 | 0.00 | 0.00 | 0.00 | 64 | 1013.0 |
| 20260509192232 | 71 | 306 | 0.9 | 1.7 | 0.00 | 0.00 | 0.00 | 63 | 1012.9 |
| 20260509191728 | 71 | 177 | 1.7 | 3.5 | 0.00 | 0.00 | 0.00 | 63 | 1013.2 |
| 20260509191224 | 72 | 209 | 2.6 | 3.5 | 0.00 | 0.00 | 0.00 | 61 | 1012.9 |
| 20260509190720 | 72 | 338 | 0.9 | 3.5 | 0.00 | 0.00 | 0.00 | 61 | 1012.8 |
| 20260509190218 | 73 | 97 | 0.9 | 2.6 | 0.00 | 0.00 | 0.00 | 60 | 1012.8 |
| 20260509185715 | 74 | 228 | 3.5 | 5.2 | 0.00 | 0.00 | 0.00 | 57 | 1012.9 |
| 20260509185211 | 75 | 133 | 1.7 | 7.8 | 0.00 | 0.00 | 0.00 | 55 | 1012.6 |
| 20260509184709 | 74 | 230 | 0.9 | 5.2 | 0.00 | 0.00 | 0.00 | 56 | 1012.6 |
| 20260509184206 | 74 | 245 | 3.5 | 6.1 | 0.00 | 0.00 | 0.00 | 55 | 1012.8 |
| 20260509183702 | 75 | 67 | 0.9 | 3.5 | 0.00 | 0.00 | 0.00 | 54 | 1012.7 |
| 20260509183158 | 76 | 110 | 0.9 | 3.5 | 0.00 | 0.00 | 0.00 | 52 | 1012.8 |
| 20260509182653 | 76 | 213 | 1.7 | 2.6 | 0.00 | 0.00 | 0.00 | 50 | 1012.9 |
| 20260509182151 | 75 | 127 | 0.9 | 3.5 | 0.00 | 0.00 | 0.00 | 51 | 1012.9 |
| 20260509181648 | 73 | 50 | 0.9 | 5.2 | 0.00 | 0.00 | 0.00 | 54 | 1013.2 |
| 20260509181146 | 72 | 253 | 3.5 | 6.1 | 0.00 | 0.00 | 0.00 | 55 | 1013.3 |
| 20260509180642 | 73 | 135 | 0.9 | 3.5 | 0.00 | 0.00 | 0.00 | 54 | 1013.6 |